Time;durP1;ratioP1;P1;durP2;ratioP2;P2;SDS_P1;SDS_P2;PMS_P1;PMS_P2;Temp;Humidity;BMP_temperature;BMP_pressure;BME280_temperature;BME280_humidity;BME280_pressure;Samples;Min_cycle;Max_cycle;Signal;HPM_P1;HPM_P2
2023/01/13 06:15:22;;;;;;;;;4.25;0.75;;;;;19.99;47.36;100633.78;4855893;29;45499;-86
2023/01/13 06:17:50;;;;;;;;;2.50;0.50;;;;;20.18;46.87;100690.97;4867319;29;45992;-86
2023/01/13 06:20:16;;;;;;;;;0.00;0.00;;;;;20.00;46.14;100674.47;4866736;29;45519;-87
2023/01/13 06:22:52;;;;;;;;;0.25;0.00;;;;;19.78;46.33;100664.44;4867425;29;46003;-85
2023/01/13 06:25:28;;;;;;;;;1.50;0.00;;;;;19.74;45.75;100682.38;4846168;29;47040;-90
2023/01/13 06:27:55;;;;;;;;;0.25;0.00;;;;;19.59;45.85;100676.25;4867283;29;45725;-83
2023/01/13 06:30:21;;;;;;;;;0.00;0.00;;;;;19.62;45.33;100715.88;4864187;29;45423;-84
2023/01/13 06:32:52;;;;;;;;;3.50;0.00;;;;;19.47;45.37;100707.09;4850120;29;45372;-85
2023/01/13 06:35:22;;;;;;;;;10.50;7.50;;;;;19.23;45.11;100684.78;4866372;29;47346;-86
2023/01/13 06:37:50;;;;;;;;;1.50;1.00;;;;;19.25;45.31;100702.34;4864438;29;46347;-85
2023/01/13 06:40:17;;;;;;;;;1.75;0.50;;;;;19.04;44.97;100685.97;4871894;29;45290;-84
2023/01/13 06:45:28;;;;;;;;;1.00;0.00;;;;;18.94;44.99;100698.09;4885546;29;45477;-86
2023/01/13 06:47:53;;;;;;;;;0.00;0.00;;;;;18.92;45.00;100726.53;4862411;29;45360;-81
2023/01/13 06:50:19;;;;;;;;;3.25;0.25;;;;;18.66;44.76;100688.34;4870767;29;45456;-81
2023/01/13 06:52:45;;;;;;;;;0.50;0.00;;;;;18.87;44.76;100721.50;4883887;29;45480;-82
2023/01/13 06:55:11;;;;;;;;;1.75;0.00;;;;;18.67;44.72;100698.00;4880128;29;45402;-88
2023/01/13 06:57:52;;;;;;;;;0.25;0.25;;;;;18.61;44.77;100712.50;4851235;29;45491;-84
2023/01/13 07:00:19;;;;;;;;;1.75;0.00;;;;;18.62;44.44;100731.88;4845988;29;45395;-84
2023/01/13 07:02:44;;;;;;;;;8.00;5.25;;;;;18.48;44.29;100716.81;4884144;29;45482;-84
2023/01/13 07:05:10;;;;;;;;;4.50;2.75;;;;;18.40;44.38;100717.28;4860868;29;48050;-83
2023/01/13 07:07:35;;;;;;;;;2.00;0.50;;;;;18.45;44.28;100730.25;4866958;29;45546;-83
2023/01/13 07:10:02;;;;;;;;;2.25;1.50;;;;;18.43;44.41;100724.19;4883386;29;45407;-85
2023/01/13 07:12:27;;;;;;;;;4.00;0.50;;;;;18.25;44.34;100724.34;4850421;29;45460;-85
2023/01/13 07:17:37;;;;;;;;;3.50;0.00;;;;;18.27;44.31;100766.63;4867556;29;45868;-86
2023/01/13 07:20:02;;;;;;;;;0.00;0.00;;;;;18.23;44.39;100765.13;4865501;29;45342;-86
2023/01/13 07:22:28;;;;;;;;;0.00;0.00;;;;;18.07;44.44;100752.75;4870282;29;45332;-84
2023/01/13 07:24:53;;;;;;;;;1.25;0.50;;;;;18.02;44.80;100758.34;4867757;29;46275;-84
2023/01/13 07:27:18;;;;;;;;;2.75;0.75;;;;;17.90;45.54;100737.88;4871448;29;45418;-84
2023/01/13 07:29:44;;;;;;;;;0.00;0.00;;;;;18.14;46.27;100750.63;4885993;29;45305;-87
2023/01/13 07:32:09;;;;;;;;;3.00;1.50;;;;;18.32;46.57;100768.06;4854464;29;45552;-84
2023/01/13 07:34:35;;;;;;;;;0.25;0.25;;;;;18.39;46.94;100781.81;4874649;29;47239;-86
2023/01/13 07:37:00;;;;;;;;;1.00;0.75;;;;;18.28;47.46;100745.34;4853339;29;46157;-87
2023/01/13 07:39:26;;;;;;;;;2.00;0.00;;;;;18.50;47.57;100770.56;4871050;29;45429;-86
2023/01/13 07:44:35;;;;;;;;;0.00;0.00;;;;;18.55;47.88;100758.75;4879257;29;45702;-83
2023/01/13 07:47:00;;;;;;;;;3.00;0.25;;;;;18.67;47.96;100767.75;4871922;29;45350;-85
2023/01/13 07:49:26;;;;;;;;;3.25;0.75;;;;;18.79;48.04;100774.13;4856250;29;45267;-89
2023/01/13 07:51:51;;;;;;;;;2.25;0.00;;;;;18.91;48.15;100791.09;4853225;29;51977;-90
2023/01/13 07:54:17;;;;;;;;;0.50;0.00;;;;;18.84;48.17;100782.69;4874412;29;47327;-88
2023/01/13 07:56:42;;;;;;;;;3.00;0.00;;;;;18.95;48.48;100782.03;4884958;29;45246;-90
2023/01/13 07:59:07;;;;;;;;;0.00;0.00;;;;;18.96;48.54;100786.38;4855494;29;45936;-90
2023/01/13 08:01:33;;;;;;;;;3.25;0.00;;;;;19.13;48.58;100815.38;4848546;29;45630;-86
2023/01/13 08:03:58;;;;;;;;;1.50;0.75;;;;;19.20;48.13;100818.50;4894315;29;46005;-86
2023/01/13 08:06:25;;;;;;;;;1.75;0.50;;;;;19.16;48.54;100815.19;4853014;29;45889;-84
2023/01/13 08:08:50;;;;;;;;;2.25;0.25;;;;;19.20;48.79;100799.94;4870951;29;45516;-85
2023/01/13 08:11:16;;;;;;;;;0.75;0.00;;;;;19.26;48.49;100809.31;4870147;29;45615;-83
2023/01/13 08:13:44;;;;;;;;;0.75;0.25;;;;;19.30;48.51;100806.38;4884317;29;47046;-86
2023/01/13 08:16:14;;;;;;;;;1.25;0.75;;;;;19.43;48.46;100818.88;4870515;29;45255;-84
2023/01/13 08:18:40;;;;;;;;;0.50;0.00;;;;;19.47;48.28;100823.88;4850509;29;45503;-84
2023/01/13 08:21:08;;;;;;;;;1.50;1.00;;;;;19.44;48.50;100818.78;4865090;29;45977;-88
2023/01/13 08:23:34;;;;;;;;;2.00;2.00;;;;;19.38;48.96;100805.88;4868384;29;47931;-88
2023/01/13 08:26:04;;;;;;;;;0.25;0.00;;;;;19.51;48.73;100820.09;4862577;29;45490;-89
2023/01/13 08:28:30;;;;;;;;;0.75;0.00;;;;;19.38;49.03;100794.44;4862019;29;45627;-88
2023/01/13 08:30:58;;;;;;;;;4.00;1.50;;;;;19.56;48.53;100817.13;4847762;29;45536;-90
2023/01/13 08:33:27;;;;;;;;;1.00;0.00;;;;;19.52;48.70;100803.22;4861822;29;48234;-94
2023/01/13 08:35:53;;;;;;;;;2.25;1.25;;;;;19.51;48.72;100795.34;4864055;29;45851;-89
2023/01/13 08:38:19;;;;;;;;;0.75;0.75;;;;;19.69;48.77;100822.53;4864788;29;45585;-91
2023/01/13 08:40:44;;;;;;;;;0.00;0.00;;;;;19.81;48.55;100842.16;4872870;29;45538;-90
2023/01/13 08:43:10;;;;;;;;;0.25;0.00;;;;;19.79;48.62;100852.88;4876562;29;47227;-90
2023/01/13 08:45:35;;;;;;;;;2.00;0.25;;;;;19.61;49.16;100808.91;4850967;29;45875;-88
2023/01/13 08:48:04;;;;;;;;;0.00;0.00;;;;;19.85;49.12;100857.81;4871959;29;45489;-88
2023/01/13 08:50:29;;;;;;;;;1.50;0.00;;;;;19.73;48.57;100830.22;4869734;29;45602;-87
2023/01/13 08:52:55;;;;;;;;;3.50;0.00;;;;;19.81;48.62;100848.31;4849070;29;47433;-87
2023/01/13 08:55:21;;;;;;;;;1.50;1.00;;;;;19.77;49.11;100825.56;4875379;29;45653;-87
2023/01/13 08:57:46;;;;;;;;;2.50;0.00;;;;;19.82;48.84;100825.28;4853974;29;45334;-87
2023/01/13 09:00:12;;;;;;;;;3.00;0.50;;;;;19.80;49.04;100827.19;4853590;29;45511;-89
2023/01/13 09:02:37;;;;;;;;;0.75;0.00;;;;;19.93;48.52;100838.72;4871809;29;45603;-88
2023/01/13 09:05:06;;;;;;;;;2.50;0.00;;;;;19.92;48.58;100837.03;4872896;29;46304;-88
2023/01/13 09:07:32;;;;;;;;;3.50;1.00;;;;;19.97;48.68;100853.50;4870796;29;45282;-87
2023/01/13 09:09:58;;;;;;;;;1.25;0.00;;;;;20.06;48.60;100870.66;4871566;29;45441;-88
2023/01/13 09:15:07;;;;;;;;;0.00;0.00;;;;;20.05;48.65;100868.97;4876518;29;45458;-87
2023/01/13 09:17:33;;;;;;;;;1.25;0.00;;;;;19.89;48.52;100842.53;4862271;29;45252;-90
2023/01/13 09:19:58;;;;;;;;;2.00;0.25;;;;;19.96;48.18;100851.81;4876436;29;45386;-88
2023/01/13 09:22:26;;;;;;;;;3.00;0.00;;;;;19.97;48.23;100850.00;4866892;29;47044;-88
2023/01/13 09:24:53;;;;;;;;;0.00;0.00;;;;;19.90;47.91;100841.56;4872005;29;45412;-88
2023/01/13 09:27:18;;;;;;;;;0.00;0.00;;;;;20.18;48.32;100884.94;4853259;29;45521;-89
2023/01/13 09:29:44;;;;;;;;;1.50;1.00;;;;;20.03;47.80;100876.19;4856279;29;45783;-88
2023/01/13 09:32:13;;;;;;;;;1.00;1.00;;;;;20.03;47.79;100879.69;4852908;29;47531;-87
2023/01/13 09:37:23;;;;;;;;;1.00;1.00;;;;;20.15;47.89;100901.97;4888655;29;45331;-88
2023/01/13 09:39:48;;;;;;;;;2.75;0.75;;;;;20.11;47.77;100895.13;4867940;29;45592;-88
2023/01/13 09:45:04;;;;;;;;;1.00;0.00;;;;;20.14;47.81;100902.06;4881536;29;45578;-91
2023/01/13 09:47:54;;;;;;;;;0.50;0.50;;;;;20.15;47.70;100898.44;4867414;29;45545;-89
2023/01/13 09:50:37;;;;;;;;;0.50;0.00;;;;;19.96;47.58;100859.78;4865390;29;48099;-91
2023/01/13 09:53:05;;;;;;;;;2.50;0.00;;;;;20.19;47.69;100903.47;4881247;29;48289;-89
2023/01/13 09:55:37;;;;;;;;;1.50;0.00;;;;;20.21;47.58;100920.16;4862237;29;45738;-86
2023/01/13 09:58:12;;;;;;;;;1.00;0.00;;;;;20.09;47.76;100899.69;4854800;29;45352;-89
2023/01/13 10:00:49;;;;;;;;;2.00;0.00;;;;;20.27;47.60;100925.09;4875252;29;45287;-91
2023/01/13 10:03:25;;;;;;;;;3.75;0.00;;;;;20.28;47.31;100941.88;4875490;29;46116;-89
2023/01/13 10:05:55;;;;;;;;;1.00;1.00;;;;;20.24;47.75;100927.09;4879789;29;46247;-88
2023/01/13 10:08:31;;;;;;;;;0.00;0.00;;;;;20.30;47.73;100935.50;4868895;29;45448;-90
2023/01/13 10:10:59;;;;;;;;;5.00;0.00;;;;;20.32;47.43;100942.53;4866264;29;45607;-88
2023/01/13 10:13:30;;;;;;;;;2.00;0.50;;;;;20.25;47.70;100940.25;4866915;29;47179;-91
2023/01/13 10:16:04;;;;;;;;;2.00;0.50;;;;;20.17;47.37;100929.28;4848176;29;45718;-92
2023/01/13 10:18:45;;;;;;;;;1.00;1.00;;;;;20.34;47.50;100945.94;4883015;29;45453;-85
2023/01/13 10:21:34;;;;;;;;;2.50;0.00;;;;;20.29;47.50;100948.88;4873368;29;45370;-83
2023/01/13 10:24:33;;;;;;;;;0.00;0.00;;;;;20.36;47.29;100962.63;4854746;29;47376;-86
2023/01/13 10:27:02;;;;;;;;;0.00;0.00;;;;;20.33;47.43;100955.72;4835189;29;45203;-85
2023/01/13 10:29:29;;;;;;;;;2.00;0.00;;;;;20.37;47.48;100962.53;4850775;29;45509;-84
2023/01/13 10:31:57;;;;;;;;;3.00;1.00;;;;;20.34;47.76;100945.94;4851606;29;45578;-87
2023/01/13 10:34:24;;;;;;;;;0.00;0.00;;;;;20.39;47.67;100963.28;4873199;29;45481;-86
2023/01/13 10:37:05;;;;;;;;;0.00;0.00;;;;;20.37;47.36;100956.38;4856300;29;46249;-87
2023/01/13 10:39:42;;;;;;;;;1.50;0.00;;;;;20.22;47.40;100936.94;4880639;29;45483;-87
2023/01/13 10:42:15;;;;;;;;;2.50;0.50;;;;;20.36;47.08;100968.81;4851771;29;45506;-87
2023/01/13 10:44:55;;;;;;;;;0.00;0.00;;;;;20.42;47.21;100973.72;4859371;29;46229;-86
2023/01/13 10:47:31;;;;;;;;;0.50;0.00;;;;;20.18;47.31;100935.44;4860027;29;45412;-88
2023/01/13 10:50:05;;;;;;;;;3.00;1.00;;;;;20.43;47.42;100983.44;4853442;29;45614;-85
2023/01/13 10:52:35;;;;;;;;;1.75;0.00;;;;;20.43;46.85;100988.75;4862057;29;45351;-86
2023/01/13 10:55:01;;;;;;;;;2.25;0.75;;;;;20.19;47.08;100942.47;4873613;29;46357;-86
2023/01/13 10:57:27;;;;;;;;;0.00;0.00;;;;;20.45;47.08;101001.91;4847884;29;45787;-85
2023/01/13 10:59:53;;;;;;;;;0.00;0.00;;;;;20.35;46.63;100974.22;4860774;29;45467;-86
2023/01/13 11:02:30;;;;;;;;;0.00;0.00;;;;;20.45;46.61;101005.44;4848471;29;45698;-86
2023/01/13 11:04:56;;;;;;;;;0.50;0.00;;;;;20.46;46.68;101004.47;4845371;29;48425;-87
2023/01/13 11:07:40;;;;;;;;;1.00;0.00;;;;;20.28;46.73;100984.41;4876438;29;45494;-83
2023/01/13 11:10:26;;;;;;;;;2.25;0.25;;;;;20.46;46.99;101011.59;4871557;29;45323;-88
2023/01/13 11:13:07;;;;;;;;;3.25;0.00;;;;;20.46;46.50;101003.63;4847441;29;45532;-85
2023/01/13 11:15:38;;;;;;;;;1.75;0.00;;;;;20.46;46.54;101007.13;4878758;29;48065;-84
2023/01/13 11:18:14;;;;;;;;;0.75;0.75;;;;;20.20;46.44;100968.06;4873229;29;45380;-85
2023/01/13 11:20:43;;;;;;;;;0.00;0.00;;;;;20.31;46.56;100992.19;4869514;29;46087;-85
2023/01/13 11:23:30;;;;;;;;;3.00;0.00;;;;;20.46;46.74;101017.75;4873595;29;45275;-84
2023/01/13 11:26:13;;;;;;;;;1.00;0.75;;;;;20.34;46.87;101002.59;4870254;29;45569;-85
2023/01/13 11:28:46;;;;;;;;;0.50;0.00;;;;;20.48;46.54;101028.31;4869201;29;45279;-85
2023/01/13 11:31:19;;;;;;;;;1.50;0.00;;;;;20.36;46.50;101005.16;4867737;29;45497;-85
2023/01/13 11:33:53;;;;;;;;;1.00;0.00;;;;;20.37;47.05;101021.00;4870105;29;45482;-84
2023/01/13 11:37:16;;;;;;;;;1.25;0.00;;;;;20.23;46.53;100999.78;4882274;29;46573;-91
2023/01/13 11:40:00;;;;;;;;;1.00;1.00;;;;;20.51;46.72;101052.03;4863277;29;45476;-90
2023/01/13 11:42:42;;;;;;;;;1.00;1.00;;;;;20.51;46.84;101040.56;4875484;29;45456;-88
2023/01/13 11:45:30;;;;;;;;;1.75;0.50;;;;;20.52;46.63;101053.72;4855985;29;45591;-87
2023/01/13 11:47:59;;;;;;;;;1.00;1.00;;;;;20.52;46.79;101040.44;4852570;29;48127;-86
2023/01/13 11:50:33;;;;;;;;;0.25;0.25;;;;;20.55;46.96;101052.69;4871503;29;45817;-87
2023/01/13 11:53:19;;;;;;;;;0.00;0.00;;;;;20.34;47.07;101001.75;4849991;29;45852;-86
2023/01/13 11:56:18;;;;;;;;;3.00;0.00;;;;;20.56;46.87;101049.09;4879189;29;45613;-85
2023/01/13 11:58:44;;;;;;;;;2.25;1.00;;;;;20.56;46.62;101059.75;4887038;29;47218;-85
2023/01/13 12:01:31;;;;;;;;;0.75;0.00;;;;;20.57;46.59;101043.66;4884271;29;45443;-86
2023/01/13 12:04:24;;;;;;;;;1.25;0.00;;;;;20.40;47.19;101006.69;4893547;29;45542;-87
2023/01/13 12:07:04;;;;;;;;;1.75;0.00;;;;;20.30;46.69;101001.94;4878595;29;46036;-91
2023/01/13 12:09:56;;;;;;;;;2.50;0.75;;;;;20.59;47.00;101048.88;4873183;29;46576;-91
2023/01/13 12:12:33;;;;;;;;;0.00;0.00;;;;;20.58;46.45;101045.38;4852837;29;46015;-88
2023/01/13 12:15:16;;;;;;;;;1.75;1.75;;;;;20.60;46.95;101040.81;4868930;29;45464;-89
2023/01/13 12:18:03;;;;;;;;;1.75;0.25;;;;;20.59;47.04;101041.78;4844428;29;45301;-93
2023/01/13 12:20:28;;;;;;;;;1.00;0.75;;;;;20.55;46.71;101040.25;4887911;29;45493;-89
2023/01/13 12:22:55;;;;;;;;;6.00;2.00;;;;;20.37;47.14;101004.22;4885041;29;45681;-90
2023/01/13 12:25:38;;;;;;;;;2.50;1.00;;;;;20.36;47.36;101011.34;4854543;29;45522;-88
2023/01/13 12:28:09;;;;;;;;;1.00;1.00;;;;;20.36;47.25;101006.03;4873265;29;45663;-89
2023/01/13 12:30:45;;;;;;;;;3.50;1.50;;;;;20.45;47.89;101024.06;4861816;29;47217;-93
2023/01/13 12:33:32;;;;;;;;;2.00;1.00;;;;;20.64;47.87;101055.63;4852900;29;45592;-93
2023/01/13 12:36:24;;;;;;;;;1.00;1.00;;;;;20.62;48.16;101056.72;4865362;29;45333;-93
2023/01/13 12:39:17;;;;;;;;;5.75;1.00;;;;;20.51;48.65;101033.44;4867428;29;45518;-92
2023/01/13 12:45:04;;;;;;;;;1.50;1.00;;;;;20.48;48.81;101045.09;4890598;29;45776;-91
2023/01/13 12:48:14;;;;;;;;;1.00;1.00;;;;;20.67;48.79;101066.09;4892674;29;45388;-89
2023/01/13 12:50:59;;;;;;;;;3.00;1.00;;;;;20.50;48.75;101037.03;4870938;29;45812;-92
2023/01/13 12:53:31;;;;;;;;;3.50;2.00;;;;;20.67;48.92;101068.75;4877401;29;48166;-95
2023/01/13 12:56:35;;;;;;;;;3.25;1.00;;;;;20.69;48.82;101070.47;4868675;29;45434;-92
2023/01/13 12:59:17;;;;;;;;;1.50;1.00;;;;;20.68;48.84;101061.63;4859465;29;45457;-93
2023/01/13 13:01:47;;;;;;;;;1.25;1.25;;;;;20.67;49.33;101067.91;4873852;29;45482;-92
2023/01/13 13:04:18;;;;;;;;;2.50;1.00;;;;;20.58;49.21;101052.50;4861435;29;46433;-94
2023/01/13 13:06:51;;;;;;;;;3.50;1.25;;;;;20.61;49.18;101054.94;4861206;29;45493;-94
2023/01/13 13:09:31;;;;;;;;;3.00;1.25;;;;;20.63;48.79;101055.75;4859303;29;44752;-95
2023/01/13 13:14:40;;;;;;;;;1.00;1.00;;;;;20.70;49.07;101067.72;4882021;29;45089;-94
2023/01/13 13:17:28;;;;;;;;;2.50;1.00;;;;;20.70;49.00;101067.72;4892125;29;44976;-94
2023/01/13 13:19:55;;;;;;;;;2.00;2.00;;;;;20.61;49.26;101046.97;4871534;29;44818;-96
2023/01/13 13:22:44;;;;;;;;;3.25;2.00;;;;;20.48;49.12;101028.31;4902951;23;44955;-91
2023/01/13 13:25:19;;;;;;;;;0.00;0.00;;;;;20.62;49.30;101062.88;4873247;29;45599;-93
2023/01/13 13:28:10;;;;;;;;;2.25;1.00;;;;;20.71;48.81;101081.84;4896458;29;45198;-93
2023/01/13 13:30:38;;;;;;;;;5.50;2.00;;;;;20.48;49.22;101038.94;4889183;29;45327;-93
2023/01/13 13:33:33;;;;;;;;;3.75;1.00;;;;;20.71;48.94;101065.91;4867195;29;45287;-93
2023/01/13 13:36:37;;;;;;;;;1.75;1.00;;;;;20.71;49.12;101074.72;4872002;29;47059;-91
2023/01/13 13:48:24;;;;;;;;;4.25;1.00;;;;;20.70;48.81;101096.97;4886360;29;45463;-94
2023/01/13 13:51:00;;;;;;;;;0.50;0.50;;;;;20.70;49.13;101094.31;4885040;29;45569;-93
2023/01/13 13:53:29;;;;;;;;;4.00;1.00;;;;;20.70;48.86;101102.28;4872416;29;45422;-92
2023/01/13 13:55:58;;;;;;;;;6.00;2.00;;;;;20.45;49.37;101063.94;4864394;29;45641;-91
2023/01/13 13:58:25;;;;;;;;;2.00;2.00;;;;;20.53;48.96;101075.88;4866947;29;47421;-89
2023/01/13 14:00:55;;;;;;;;;3.25;1.00;;;;;20.70;49.36;101112.94;4858018;29;45446;-91
2023/01/13 14:03:28;;;;;;;;;3.00;1.00;;;;;20.46;49.35;101073.59;4867360;29;45375;-93
2023/01/13 14:05:59;;;;;;;;;3.00;1.00;;;;;20.46;49.33;101070.94;4854706;29;45470;-92
2023/01/13 14:08:26;;;;;;;;;4.75;1.00;;;;;20.54;49.26;101082.88;4870952;29;47679;-92
2023/01/13 14:10:52;;;;;;;;;2.75;1.00;;;;;20.70;49.03;101118.25;4876364;29;46194;-92
2023/01/13 14:13:21;;;;;;;;;5.50;2.00;;;;;20.61;49.27;101108.13;4883581;29;45347;-94
2023/01/13 14:16:08;;;;;;;;;1.00;0.25;;;;;20.70;48.95;101118.25;4870301;29;45446;-91
2023/01/13 14:18:43;;;;;;;;;4.25;1.75;;;;;20.71;49.33;101127.06;4868104;29;48565;-90
2023/01/13 14:21:23;;;;;;;;;2.00;1.00;;;;;20.46;49.00;101097.53;4872523;29;45412;-92
2023/01/13 14:23:51;;;;;;;;;2.00;1.00;;;;;20.59;48.89;101128.66;4872901;29;45275;-93
2023/01/13 14:26:17;;;;;;;;;1.25;1.00;;;;;20.70;48.91;101147.50;4885324;29;45525;-91
2023/01/13 14:28:43;;;;;;;;;3.00;1.50;;;;;20.66;48.95;101151.28;4862860;29;46005;-92
2023/01/13 14:31:11;;;;;;;;;4.00;0.75;;;;;20.69;48.93;101153.75;4874847;29;45522;-88
2023/01/13 14:33:45;;;;;;;;;2.75;1.00;;;;;20.69;49.04;101152.91;4878788;29;45252;-89
2023/01/13 14:36:17;;;;;;;;;3.00;2.00;;;;;20.70;49.40;101170.56;4863235;29;45833;-91
2023/01/13 14:38:45;;;;;;;;;4.50;2.00;;;;;20.67;49.72;101159.16;4880521;29;47339;-88
2023/01/13 14:41:17;;;;;;;;;1.00;1.00;;;;;20.71;49.66;101156.31;4885062;29;45422;-89
2023/01/13 14:43:44;;;;;;;;;2.75;1.25;;;;;20.72;49.75;101169.53;4884256;29;45457;-93
2023/01/13 14:46:10;;;;;;;;;1.25;1.25;;;;;20.45;49.30;101121.53;4871707;29;45876;-89
2023/01/13 14:48:36;;;;;;;;;1.25;1.00;;;;;20.47;49.32;101123.16;4876759;29;47037;-88
2023/01/13 14:51:04;;;;;;;;;1.50;1.00;;;;;20.62;49.50;101153.28;4888076;29;45282;-90
2023/01/13 14:53:45;;;;;;;;;3.75;1.50;;;;;20.75;49.74;101181.78;4865700;29;45378;-88
2023/01/13 14:56:43;;;;;;;;;3.00;1.75;;;;;20.76;49.65;101183.50;4863220;29;45476;-89
2023/01/13 14:59:47;;;;;;;;;1.00;1.00;;;;;20.76;49.98;101181.69;4859203;29;48194;-88
2023/01/13 15:02:24;;;;;;;;;2.50;2.00;;;;;20.77;49.89;101185.19;4881469;29;45326;-89
2023/01/13 15:05:16;;;;;;;;;4.00;1.00;;;;;20.54;49.76;101152.03;4887659;29;45242;-90
2023/01/13 15:07:50;;;;;;;;;2.50;1.00;;;;;20.54;49.53;101152.03;4888185;29;45336;-90
2023/01/13 15:10:18;;;;;;;;;2.00;1.00;;;;;20.53;49.46;101166.28;4889976;29;48036;-92
2023/01/13 15:12:43;;;;;;;;;4.75;0.00;;;;;20.52;49.52;101156.59;4876268;29;45485;-90
2023/01/13 15:15:29;;;;;;;;;2.50;1.00;;;;;20.71;49.40;101209.53;4890004;29;45334;-88
2023/01/13 15:17:54;;;;;;;;;1.00;0.50;;;;;20.68;49.40;101207.88;4889918;29;45479;-90
2023/01/13 15:20:22;;;;;;;;;2.50;1.00;;;;;20.65;49.17;101216.06;4873864;29;47983;-92
2023/01/13 15:22:48;;;;;;;;;5.25;2.00;;;;;20.69;49.22;101232.69;4867553;29;47195;-91
2023/01/13 15:25:13;;;;;;;;;0.00;0.00;;;;;20.57;49.56;101221.81;4873253;29;45461;-91
2023/01/13 15:27:41;;;;;;;;;1.25;1.00;;;;;20.78;49.56;101256.06;4875568;29;45452;-91
2023/01/13 15:30:20;;;;;;;;;0.00;0.00;;;;;20.62;49.41;101240.19;4884837;29;46539;-89
2023/01/13 15:33:01;;;;;;;;;2.25;0.75;;;;;20.78;49.01;101277.34;4889078;29;45504;-93
2023/01/13 15:35:27;;;;;;;;;0.00;0.00;;;;;20.79;48.89;101279.06;4876897;29;45287;-91
2023/01/13 15:37:55;;;;;;;;;1.50;1.00;;;;;20.69;48.89;101273.44;4872639;29;44905;-92
2023/01/13 15:40:30;;;;;;;;;2.00;1.00;;;;;20.57;49.24;101251.06;4888575;29;46956;-90
2023/01/13 15:48:26;;;;;;;;;1.75;0.00;;;;;20.70;49.20;101272.50;4886419;29;45440;-89
2023/01/13 15:50:52;;;;;;;;;2.00;1.50;;;;;20.68;49.04;101271.72;4867536;29;47027;-93
2023/01/13 15:53:17;;;;;;;;;3.50;1.00;;;;;20.78;49.06;101280.00;4872974;29;45789;-87
2023/01/13 15:55:46;;;;;;;;;4.50;1.00;;;;;20.60;49.37;101252.69;4885927;29;45423;-87
2023/01/13 15:58:12;;;;;;;;;0.25;0.25;;;;;20.78;48.91;101288.84;4861834;29;45822;-89
2023/01/13 16:00:38;;;;;;;;;3.00;0.25;;;;;20.78;49.31;101283.50;4875684;29;48271;-88
2023/01/13 16:03:04;;;;;;;;;3.75;1.00;;;;;20.75;49.08;101282.84;4880449;29;45323;-88
2023/01/13 16:05:29;;;;;;;;;1.50;0.00;;;;;20.58;49.07;101251.94;4875405;29;45351;-88
2023/01/13 16:07:54;;;;;;;;;2.25;0.50;;;;;20.73;48.84;101277.63;4900941;29;45478;-90
2023/01/13 16:10:25;;;;;;;;;0.00;0.00;;;;;20.64;48.79;101267.53;4871851;29;46906;-87
2023/01/13 16:12:56;;;;;;;;;2.00;1.00;;;;;20.47;48.97;101245.47;4879504;29;45662;-87
2023/01/13 16:15:23;;;;;;;;;1.75;1.00;;;;;20.69;49.15;101285.91;4892852;29;45768;-87
2023/01/13 16:17:53;;;;;;;;;0.75;0.00;;;;;20.57;48.85;101277.66;4884620;29;45435;-89
2023/01/13 16:20:19;;;;;;;;;2.50;1.00;;;;;20.69;49.19;101292.06;4861734;29;47102;-86
2023/01/13 16:22:46;;;;;;;;;2.75;1.00;;;;;20.66;48.74;101273.63;4944222;23;45343;-92
2023/01/13 16:25:22;;;;;;;;;1.00;1.00;;;;;20.78;48.94;101302.13;4835992;29;44891;-93
2023/01/13 16:27:47;;;;;;;;;2.00;0.00;;;;;20.65;48.78;101279.91;4841112;29;46952;-92
2023/01/13 16:30:35;;;;;;;;;4.50;1.00;;;;;20.78;49.12;101306.59;4863257;29;48607;-91
2023/01/13 16:33:38;;;;;;;;;2.50;1.00;;;;;20.51;48.98;101259.44;4858153;29;45264;-88
2023/01/13 16:36:11;;;;;;;;;2.75;0.00;;;;;20.71;49.07;101303.44;4813806;29;45527;-91
2023/01/13 16:39:12;;;;;;;;;;;;;;;;;;;;;
2023/01/13 16:41:40;;;;;;;;;1.00;1.00;;;;;20.52;48.89;101279.75;4847120;29;75840;-82
2023/01/13 16:44:23;;;;;;;;;1.00;1.00;;;;;20.66;49.01;101308.19;4851201;29;45498;-84
2023/01/13 16:47:09;;;;;;;;;;;;;;;;;;;;;
2023/01/13 16:49:38;;;;;;;;;1.00;1.00;;;;;20.73;49.28;101327.31;4851999;29;72716;-84
2023/01/13 16:52:03;;;;;;;;;1.75;1.00;;;;;20.75;49.03;101341.38;4863894;29;47612;-82
2023/01/13 16:54:46;;;;;;;;;4.25;2.25;;;;;20.55;49.39;101311.47;4838310;29;45623;-84
2023/01/13 16:57:27;;;;;;;;;4.75;2.00;;;;;20.56;49.41;101318.50;4850867;29;45435;-86
2023/01/13 17:00:57;;;;;;;;;5.75;2.00;;;;;20.54;49.12;101328.38;4832205;29;45192;-85
2023/01/13 17:04:16;;;;;;;;;1.50;1.25;;;;;20.73;49.42;101352.09;4839023;29;46033;-89
2023/01/13 17:07:12;;;;;;;;;;;;;;;;;;;;;
2023/01/13 17:09:41;;;;;;;;;1.75;1.25;;;;;20.53;49.70;101315.19;4834661;29;68842;-90
2023/01/13 17:12:10;;;;;;;;;4.50;3.00;;;;;20.79;49.63;101359.72;4831605;29;45631;-86
2023/01/13 17:14:35;;;;;;;;;4.25;3.00;;;;;20.68;49.26;101351.50;4819526;29;47150;-87
2023/01/13 17:17:01;;;;;;;;;7.75;5.75;;;;;20.57;48.80;101337.97;4849156;29;45704;-87
2023/01/13 17:19:26;;;;;;;;;5.25;2.75;;;;;20.67;49.34;101357.78;4815703;29;45244;-86
2023/01/13 17:21:52;;;;;;;;;9.25;3.50;;;;;20.69;49.06;101369.19;4831492;29;45580;-84
2023/01/13 17:24:17;;;;;;;;;9.00;5.00;;;;;20.72;48.82;101366.34;4830415;29;46091;-85
2023/01/13 17:26:47;;;;;;;;;7.00;4.00;;;;;20.72;48.73;101378.81;4829612;29;45782;-84
2023/01/13 17:29:32;;;;;;;;;8.50;5.75;;;;;20.49;48.47;101338.44;4846004;29;45340;-88
2023/01/13 17:31:59;;;;;;;;;7.75;7.00;;;;;20.49;48.47;101360.56;4830327;29;45613;-93
2023/01/13 17:34:42;;;;;;;;;;;;;;;;;;;;;
2023/01/13 17:37:08;;;;;;;;;9.50;5.00;;;;;20.47;48.14;101351.81;4848083;29;73231;-91
2023/01/13 17:39:34;;;;;;;;;5.75;5.25;;;;;20.56;48.54;101382.34;4826302;29;45582;-91
2023/01/13 17:42:02;;;;;;;;;13.50;5.00;;;;;20.59;46.98;101403.44;4832042;29;45409;-89
2023/01/13 17:44:28;;;;;;;;;8.50;3.50;;;;;20.56;45.98;101422.22;4850450;29;46389;-85
2023/01/13 17:46:56;;;;;;;;;5.25;2.50;;;;;20.34;46.04;101392.50;4835663;29;45264;-88
2023/01/13 17:49:21;;;;;;;;;7.25;5.00;;;;;20.53;45.97;101426.84;4833072;29;45518;-92
2023/01/13 17:51:47;;;;;;;;;7.00;2.25;;;;;20.29;46.05;101393.63;4834411;29;45778;-88
2023/01/13 17:54:13;;;;;;;;;2.25;2.00;;;;;20.47;45.95;101428.06;4840379;29;47204;-90
2023/01/13 17:56:39;;;;;;;;;4.00;3.25;;;;;20.47;45.52;101444.03;4825174;29;46029;-91
2023/01/13 17:59:05;;;;;;;;;8.00;3.00;;;;;20.45;45.76;101443.22;4826195;29;45464;-92
2023/01/13 18:01:31;;;;;;;;;3.50;2.50;;;;;20.44;45.34;101457.50;4839220;29;45237;-89
2023/01/13 18:04:00;;;;;;;;;3.75;2.50;;;;;20.20;45.83;101412.75;4815548;29;47111;-89
2023/01/13 18:06:26;;;;;;;;;4.50;1.50;;;;;20.33;45.89;101430.63;4848969;29;45545;-88
2023/01/13 18:08:52;;;;;;;;;3.25;3.00;;;;;20.29;46.18;101409.56;4816264;29;45529;-91
2023/01/13 18:11:19;;;;;;;;;4.75;3.00;;;;;20.40;46.16;101421.41;4831940;29;45497;-90
2023/01/13 18:13:45;;;;;;;;;4.00;2.50;;;;;20.30;46.26;101394.47;4832271;29;48282;-93
2023/01/13 18:16:13;;;;;;;;;2.75;2.00;;;;;20.33;45.88;101390.78;4831004;29;45373;-86
2023/01/13 18:18:41;;;;;;;;;3.50;0.00;;;;;20.49;45.79;101419.06;4815288;29;45363;-88
2023/01/13 18:29:28;;;;;;;;;3.75;1.00;;;;;20.44;46.78;101409.63;4825164;29;45336;-91
2023/01/13 18:31:54;;;;;;;;;3.00;1.75;;;;;20.47;46.69;101405.00;4816815;29;45660;-90
2023/01/13 18:34:19;;;;;;;;;1.25;1.25;;;;;20.43;46.81;101402.59;4815253;29;47015;-89
2023/01/13 18:36:45;;;;;;;;;3.50;2.00;;;;;20.40;46.66;101394.81;4813108;29;45565;-92
2023/01/13 18:39:10;;;;;;;;;2.50;1.00;;;;;20.62;46.92;101429.00;4815606;29;45239;-90
2023/01/13 18:44:20;;;;;;;;;4.25;1.00;;;;;20.62;46.87;101429.00;4833765;29;45661;-91
2023/01/13 18:46:45;;;;;;;;;1.75;0.25;;;;;20.64;47.08;101424.44;4814693;29;45963;-92
2023/01/13 18:49:11;;;;;;;;;1.00;0.00;;;;;20.64;46.78;101427.97;4812555;29;45356;-92
2023/01/13 18:51:37;;;;;;;;;2.75;1.75;;;;;20.40;47.04;101384.19;4819811;29;45830;-91
2023/01/13 18:54:03;;;;;;;;;3.50;1.50;;;;;20.65;46.72;101421.72;4812416;29;48210;-91
2023/01/13 18:56:29;;;;;;;;;2.50;1.50;;;;;20.67;46.93;101432.25;4812689;29;45354;-90